LGTS - Thessaloniki/Mik, Greece
Distance from station: 15km
: 01/12/2022 02:50
Mostly Cloudy
Mostly Cloudy

: 26 km/h
: 13°C
: 9°C
: 77%
: 1012 hPa
Clouds: Mostly Cloudy
Visibility: 10 km
Cloud details: Few Clouds 366 m
Mostly Cloudy 762 m
2022/12/01 00:50 LGTS 010050Z 09014KT 9999 FEW012 BKN025 13/09 Q1012 TEMPO 5000 RA
LGKZ - Kozani (civ/Army, Greece
Distance from station: 113km
: 01/12/2022 02:50


: 7 km/h
: 8°C
Wind Chill: 7°C
: 6°C
: 87%
: 1011 hPa
2022/12/01 00:50 LGKZ 010050Z AUTO 01004KT 330V040 //// // ////// 08/06 Q1011 RE//
 
LGKV - Kavala/Chrisoupo, Greece
Distance from station: 132km
: 30/11/2022 19:50
NOT Current


: 22 km/h
: 12°C
: 8°C
: 77%
: 1015 hPa
Clouds:
Visibility: 10 km
Cloud details: Few Clouds 610 m
Partly Cloudy 914 m
2438 m
2022/11/30 17:50 LGKV 301750Z 05012KT 9999 FEW020 SCT030 OVC080 12/08 Q1015
LGBL - Nea Anchialos, Greece
Distance from station: 156km
: 01/12/2022 02:50

   calm
:
: 10°C
: 9°C
: 94%
: 1010 hPa
Clouds:
Visibility: 6 km
Cloud details: Few Clouds 305 m
Mostly Cloudy 762 m
2134 m
2022/12/01 00:50 LGBL 010050Z 00000KT 6000 FEW010 BKN025 OVC070 10/09 Q1010
 
LGSK - Skiathos Island, Greece
Distance from station: 161km
: 29/11/2022 16:50
NOT Current
,
,

: 19 km/h
: 11°C
: 9°C
: 88%
: 1015 hPa
:
Clouds: Mostly Cloudy
Visibility: 3 km
Cloud details: Few Clouds 244 m
Mostly Cloudy 610 m
2022/11/29 14:50 LGSK 291450Z 31010KT 3000 RA FEW008 BKN020 11/09 Q1015
LWSK - Skopje/Petrovac, Macedonia
Distance from station: 195km
: 01/12/2022 03:00
 , Mist,
, Mist,
   calm
:
: 6°C
: 5°C
: 93%
: 1016 hPa
: , Mist
Clouds:
Visibility: 1 km
Cloud details: Partly Cloudy 61 m
Mostly Cloudy 122 m
610 m
2022/12/01 01:00 LWSK 010100Z 00000KT 1400 -RA BR SCT002 BKN004 OVC020 06/05 Q1016 NOSIG
 
LGLM - Limnos Island Ar, Greece
Distance from station: 196km
: 01/12/2022 02:50
 ,
,

: 26 km/h, : 44 km/h
: 13°C
: 11°C
: 88%
: 1013 hPa
: Light Rain
Clouds: Mostly Cloudy
Visibility: 10 km
Cloud details: Partly Cloudy 244 m
Mostly Cloudy 762 m
2022/12/01 00:50 LGLM 010050Z 08014G24KT 9999 -RA SCT008 BKN025 13/11 Q1013
LWOH - Ohrid, Macedonia
Distance from station: 202km
: 30/11/2022 22:00
NOT Current


: 17 km/h
: 7°C
Wind Chill: 4°C
: 2°C
: 71%
: 1013 hPa
Clouds:
Visibility: 10 km
Cloud details: 1219 m
2022/11/30 20:00 LWOH 302000Z 35009KT 9999 OVC040 07/02 Q1013
 
LGSY - Skiros, Greece
Distance from station: 217km
: 30/11/2022 19:50
NOT Current
 ,
,

: 22 km/h
: 15°C
: 13°C
: 88%
: 1011 hPa
: Light Rain
Clouds: Mostly Cloudy
Visibility: 7 km
Cloud details: Partly Cloudy 366 m
Mostly Cloudy 610 m
2022/11/30 17:50 LGSY 301750Z 10012KT 7000 -RA SCT012 BKN020 15/13 Q1011 RMK OVC070 WHT
LGIO - Ioannina, Greece
Distance from station: 218km
: 01/12/2022 02:50
Light Rain
Light Rain

: 24 km/h, : 43 km/h
: 12°C
: 4°C
: 58%
: 1007 hPa
: Light Rain
2022/12/01 00:50 LGIO 010050Z AUTO 09013G23KT 040V120 //// -RA ////// 12/04 Q1007 RE//
 
LBPD - Plovdiv, Bulgaria
Distance from station: 222km
: 01/12/2022 03:00
 ,
,

: 13 km/h
: 6°C
Wind Chill: 3°C
: 6°C
: 100%
: 1020 hPa
: Light Rain
Clouds:
Visibility: 10 km
Cloud details: 335 m
2022/12/01 01:00 LBPD 010100Z AUTO 14007KT 9999 -RA OVC011/// 06/06 Q1020
LBSF - Sofia (observato, Bulgaria
Distance from station: 229km
: 01/12/2022 03:00


: 13 km/h
: 4°C
Wind Chill: 1°C
: 2°C
: 87%
: 1019 hPa
Clouds:
Visibility: 10 km
Cloud details: Mostly Cloudy 427 m
640 m
2022/12/01 01:00 LBSF 010100Z AUTO 13007KT 9999 BKN014/// OVC021/// 04/02 Q1019 NOSIG
 
LGAL - Alexandroupolis, Greece
Distance from station: 242km
: 01/12/2022 02:50
Mostly Cloudy
Mostly Cloudy

: 33 km/h, : 52 km/h
: 10°C
Wind Chill: 6°C
: 7°C
: 82%
: 1016 hPa
Clouds: Mostly Cloudy
Visibility: 10 km
Cloud details: Few Clouds 366 m
Mostly Cloudy 762 m
2022/12/01 00:50 LGAL 010050Z 04018G28KT 9999 FEW012 BKN025 10/07 Q1016
LGPZ - Preveza/Aktion, Greece
Distance from station: 274km
: 01/12/2022 02:50
 ,
,

: 19 km/h
: 12°C
: 11°C
: 94%
: 1007 hPa
: Light Rain
Clouds: Mostly Cloudy
Visibility: 10 km
Cloud details: Partly Cloudy 366 m
Partly Cloudy 549 m
Mostly Cloudy 914 m
2022/12/01 00:50 LGPZ 010050Z 10010KT 9999 -RA SCT012 SCT018 BKN030 12/11 Q1007
 
BKPR - Prishtina, Yugoslavia
Distance from station: 280km
: 01/12/2022 03:00
Mostly Cloudy
Mostly Cloudy

: 28 km/h
: 3°C
Wind Chill: -3°C
: 2°C
: 93%
: 1016 hPa
Clouds: Mostly Cloudy
Visibility: 10 km
Cloud details: Partly Cloudy 549 m
Mostly Cloudy 762 m
2022/12/01 01:00 BKPR 010100Z 01015KT 9999 SCT018 BKN025 03/02 Q1016 NOSIG
LGEL - Elefsis (hel-Afb, Greece
Distance from station: 284km
: 01/12/2022 02:50
 ,
,

: 17 km/h
: 13°C
: 12°C
: 94%
: 1009 hPa
: Light Rain
Clouds: Mostly Cloudy
Visibility: 8 km
Cloud details: Few Clouds 457 m
Few Clouds 610 m
Mostly Cloudy 762 m
2022/12/01 00:50 LGEL 010050Z 09009KT 8000 -RA FEW015 FEW020TCU BKN025 13/12 Q1009
 
LATI - Tirana, Albania
Distance from station: 291km
: 01/12/2022 03:20
 ,
,
   varies
: varies 4 km/h
: 9°C
: 7°C
: 87%
: 1010 hPa
: Light Rain
Clouds: Mostly Cloudy
Visibility: 10 km
Cloud details: Few Clouds 1554 m
Mostly Cloudy 2134 m
2022/12/01 01:20 LATI 010120Z VRB02KT 9999 -RA FEW051 BKN070 09/07 Q1010 NOSIG
LGKR - Ioannis Kapodist, Greece
Distance from station: 292km
: 01/12/2022 02:50
 ,
,
   calm
:
: 14°C
: 11°C
: 82%
: 1006 hPa
: Light Rain
Clouds:
Visibility: 8 km
Cloud details: Few Clouds 549 m
Mostly Cloudy 762 m
2438 m
2022/12/01 00:50 LGKR 010050Z 00000KT 8000 -RA FEW018 BKN025 OVC080 14/11 Q1006 NOSIG